createdAt,value
2022-07-31T00:01:21.216Z,99.90
2022-07-31T00:03:47.925Z,99.90
2022-07-31T00:06:14.594Z,99.90
2022-07-31T00:08:41.206Z,99.90
2022-07-31T00:11:07.828Z,99.90
2022-07-31T00:13:58.072Z,99.90
2022-07-31T00:16:21.115Z,99.90
2022-07-31T00:18:47.738Z,99.90
2022-07-31T00:21:14.354Z,99.90
2022-07-31T00:23:43.655Z,99.90
2022-07-31T00:26:10.455Z,99.90
2022-07-31T00:28:37.373Z,99.90
2022-07-31T00:31:04.044Z,99.90
2022-07-31T00:33:30.738Z,99.90
2022-07-31T00:35:57.398Z,99.90
2022-07-31T00:38:26.860Z,99.90
2022-07-31T00:40:54.249Z,99.90
2022-07-31T00:43:20.993Z,99.90
2022-07-31T00:45:49.361Z,99.90
2022-07-31T00:48:25.902Z,99.90
2022-07-31T00:50:54.783Z,99.90
2022-07-31T00:53:21.394Z,99.90
2022-07-31T00:55:51.930Z,99.90
2022-07-31T00:58:19.837Z,99.90
2022-07-31T01:00:46.723Z,99.90
2022-07-31T01:03:13.433Z,99.90
2022-07-31T01:05:40.065Z,99.90
2022-07-31T01:08:06.717Z,99.90
2022-07-31T01:10:56.310Z,99.90
2022-07-31T01:13:35.926Z,99.90
2022-07-31T01:16:03.289Z,99.90
2022-07-31T01:18:32.016Z,99.90
2022-07-31T01:21:01.243Z,99.90
2022-07-31T01:23:54.780Z,99.90
2022-07-31T01:26:37.422Z,99.90
2022-07-31T01:29:12.190Z,99.90
2022-07-31T01:31:41.908Z,99.90
2022-07-31T01:34:17.663Z,99.90
2022-07-31T01:36:46.992Z,99.90
2022-07-31T01:39:13.620Z,99.90
2022-07-31T01:41:42.983Z,99.90
2022-07-31T01:44:14.151Z,99.90
2022-07-31T01:46:41.686Z,99.90
2022-07-31T01:49:09.162Z,99.90
2022-07-31T01:51:35.879Z,99.90
2022-07-31T01:54:03.116Z,99.90
2022-07-31T01:56:30.580Z,99.90
2022-07-31T01:58:57.179Z,99.90
2022-07-31T02:01:27.087Z,99.90
2022-07-31T02:03:56.337Z,99.90
2022-07-31T02:06:23.282Z,99.90
2022-07-31T02:08:50.813Z,99.90
2022-07-31T02:11:19.110Z,99.90
2022-07-31T02:13:46.844Z,99.90
2022-07-31T02:16:13.954Z,99.90
2022-07-31T02:18:41.169Z,99.90
2022-07-31T02:21:07.959Z,99.90
2022-07-31T02:23:36.007Z,99.90
2022-07-31T02:26:03.171Z,99.90
2022-07-31T02:28:30.045Z,99.90
2022-07-31T02:30:56.647Z,99.90
2022-07-31T02:33:25.268Z,99.90
2022-07-31T02:35:54.714Z,99.90
2022-07-31T02:38:23.889Z,99.90
2022-07-31T02:40:51.165Z,99.90
2022-07-31T02:43:17.811Z,99.90
2022-07-31T02:45:44.449Z,99.90
2022-07-31T02:48:11.127Z,99.90
2022-07-31T02:50:38.220Z,99.90
2022-07-31T02:53:04.834Z,99.90
2022-07-31T02:55:31.446Z,99.90
2022-07-31T02:57:58.083Z,99.90
2022-07-31T03:00:27.021Z,99.90
2022-07-31T03:02:54.403Z,99.90
2022-07-31T03:05:21.489Z,99.90
2022-07-31T03:07:48.189Z,99.90
2022-07-31T03:10:14.939Z,99.90
2022-07-31T03:12:46.227Z,99.90
2022-07-31T03:15:14.981Z,99.90
2022-07-31T03:17:42.289Z,99.90
2022-07-31T03:20:09.736Z,99.90
2022-07-31T03:22:36.455Z,99.90
2022-07-31T03:25:03.643Z,99.90
2022-07-31T03:27:30.257Z,99.90
2022-07-31T03:29:56.865Z,99.90
2022-07-31T03:32:23.488Z,99.90
2022-07-31T03:34:50.091Z,99.90
2022-07-31T03:37:16.710Z,99.90
2022-07-31T03:39:43.311Z,99.90
2022-07-31T03:42:12.998Z,99.90
2022-07-31T03:44:45.722Z,99.90
2022-07-31T03:47:12.409Z,99.90
2022-07-31T03:49:39.190Z,99.90
2022-07-31T03:52:11.454Z,99.90
2022-07-31T03:54:38.471Z,99.90
2022-07-31T03:57:05.070Z,99.90
2022-07-31T03:59:36.667Z,99.90
2022-07-31T04:02:07.998Z,99.90
2022-07-31T04:04:37.278Z,99.90
2022-07-31T04:07:04.873Z,99.90
2022-07-31T04:09:31.804Z,99.90
2022-07-31T04:11:58.480Z,99.90
2022-07-31T04:14:25.135Z,99.90
2022-07-31T04:16:51.787Z,99.90
2022-07-31T04:19:18.408Z,99.90
2022-07-31T04:21:45.054Z,99.90
2022-07-31T04:24:16.582Z,99.90
2022-07-31T04:26:43.707Z,99.90
2022-07-31T04:29:10.474Z,99.90
2022-07-31T04:31:37.113Z,99.90
2022-07-31T04:34:03.734Z,99.90
2022-07-31T04:36:31.050Z,99.90
2022-07-31T04:38:58.850Z,99.90
2022-07-31T04:41:25.534Z,99.90
2022-07-31T04:43:52.157Z,99.90
2022-07-31T04:46:18.897Z,99.90
2022-07-31T04:48:45.770Z,99.90
2022-07-31T04:51:16.618Z,99.90
2022-07-31T04:53:43.503Z,99.90
2022-07-31T04:56:28.597Z,99.90
2022-07-31T04:58:55.261Z,99.90
2022-07-31T05:01:21.901Z,99.90
2022-07-31T05:03:48.594Z,99.90
2022-07-31T05:06:15.218Z,99.90
2022-07-31T05:08:41.902Z,99.90
2022-07-31T05:11:23.501Z,99.90
2022-07-31T05:13:54.101Z,99.90
2022-07-31T05:16:20.951Z,99.90
2022-07-31T05:18:47.720Z,99.90
2022-07-31T05:21:14.810Z,99.90
2022-07-31T05:23:42.061Z,99.90
2022-07-31T05:26:08.736Z,99.90
2022-07-31T05:28:35.747Z,99.90
2022-07-31T05:31:02.460Z,99.90
2022-07-31T05:33:29.084Z,99.90
2022-07-31T05:35:56.322Z,99.90
2022-07-31T05:38:22.956Z,99.90
2022-07-31T05:40:49.724Z,99.90
2022-07-31T05:43:16.351Z,99.90
2022-07-31T05:45:42.945Z,99.90
2022-07-31T05:48:09.577Z,99.90
2022-07-31T05:50:36.197Z,99.90
2022-07-31T05:53:02.805Z,99.90
2022-07-31T05:55:29.458Z,99.90
2022-07-31T05:57:56.089Z,99.90
2022-07-31T06:00:22.769Z,99.90
2022-07-31T06:02:49.396Z,99.90
2022-07-31T06:05:16.021Z,99.90
2022-07-31T06:07:51.999Z,99.90
2022-07-31T06:10:18.960Z,99.90
2022-07-31T06:12:45.574Z,99.90
2022-07-31T06:15:12.199Z,99.90
2022-07-31T06:17:44.109Z,99.90
2022-07-31T06:20:11.618Z,99.90
2022-07-31T06:22:43.765Z,99.90
2022-07-31T06:25:10.634Z,99.90
2022-07-31T06:27:40.074Z,99.90
2022-07-31T06:30:08.291Z,99.90
2022-07-31T06:32:35.042Z,99.90
2022-07-31T06:35:01.663Z,99.90
2022-07-31T06:37:28.298Z,99.90
2022-07-31T06:39:56.266Z,99.90
2022-07-31T06:42:23.751Z,99.90
2022-07-31T06:44:50.592Z,99.90
2022-07-31T06:47:17.785Z,99.90
2022-07-31T06:49:44.570Z,99.90
2022-07-31T06:52:11.221Z,99.90
2022-07-31T06:54:37.829Z,99.90
2022-07-31T06:57:04.724Z,99.90
2022-07-31T06:59:39.251Z,99.90
2022-07-31T07:02:07.645Z,99.90
2022-07-31T07:04:56.513Z,99.90
2022-07-31T07:07:21.213Z,99.90
2022-07-31T07:09:47.917Z,99.90
2022-07-31T07:12:16.749Z,99.90
2022-07-31T07:14:44.051Z,99.90
2022-07-31T07:17:10.711Z,99.90
2022-07-31T07:19:40.116Z,99.90
2022-07-31T07:22:07.072Z,99.90
2022-07-31T07:24:33.985Z,99.90
2022-07-31T07:27:00.624Z,99.90
2022-07-31T07:29:27.297Z,99.90
2022-07-31T07:31:53.930Z,99.90
2022-07-31T07:34:20.692Z,99.90
2022-07-31T07:36:47.305Z,99.90
2022-07-31T07:39:13.894Z,99.90
2022-07-31T07:41:41.233Z,99.90
2022-07-31T07:44:07.874Z,99.90
2022-07-31T07:55:10.456Z,99.90
2022-07-31T07:57:37.081Z,99.90
2022-07-31T08:00:06.731Z,99.90
2022-07-31T08:02:33.685Z,99.90
2022-07-31T08:05:00.808Z,99.90
2022-07-31T08:07:42.061Z,99.90
2022-07-31T08:10:09.625Z,99.90
2022-07-31T08:12:36.357Z,99.90
2022-07-31T08:22:50.470Z,99.50
2022-07-31T08:25:17.070Z,99.10
2022-07-31T08:27:43.659Z,98.70
2022-07-31T08:30:15.558Z,97.90
2022-07-31T08:32:42.187Z,97.10
2022-07-31T08:35:09.030Z,96.60
2022-07-31T08:38:01.898Z,96.90
2022-07-31T08:40:22.474Z,96.50
2022-07-31T08:42:49.155Z,96.80
2022-07-31T08:45:15.809Z,95.00
2022-07-31T08:47:44.404Z,95.10
2022-07-31T08:50:12.097Z,92.60
2022-07-31T08:52:40.388Z,92.50
2022-07-31T08:55:07.808Z,93.40
2022-07-31T08:57:35.578Z,91.80
2022-07-31T09:00:04.246Z,91.50
2022-07-31T09:02:32.338Z,88.70
2022-07-31T09:04:59.490Z,89.10
2022-07-31T09:07:26.104Z,90.20
2022-07-31T09:09:52.733Z,90.50
2022-07-31T09:12:32.419Z,90.20
2022-07-31T09:15:00.829Z,90.40
2022-07-31T09:17:31.945Z,88.70
2022-07-31T09:19:58.866Z,85.40
2022-07-31T09:22:29.591Z,83.30
2022-07-31T09:25:21.228Z,79.30
2022-07-31T09:27:48.155Z,73.80
2022-07-31T09:30:15.585Z,69.20
2022-07-31T09:32:43.194Z,68.40
2022-07-31T09:35:11.295Z,66.40
2022-07-31T09:37:39.058Z,67.70
2022-07-31T09:40:09.129Z,66.80
2022-07-31T09:42:45.539Z,66.30
2022-07-31T09:45:23.089Z,65.70
2022-07-31T09:48:06.330Z,60.60
2022-07-31T09:50:33.045Z,58.10
2022-07-31T09:53:00.722Z,57.10
2022-07-31T09:55:27.552Z,58.00
2022-07-31T09:57:56.055Z,57.30
2022-07-31T10:00:22.996Z,57.70
2022-07-31T10:02:49.657Z,59.70
2022-07-31T10:05:16.329Z,61.60
2022-07-31T10:07:42.928Z,62.90
2022-07-31T10:10:09.993Z,63.10
2022-07-31T10:12:39.225Z,62.40
2022-07-31T10:15:08.499Z,62.70
2022-07-31T10:17:37.719Z,63.30
2022-07-31T10:20:06.288Z,64.80
2022-07-31T10:22:36.032Z,64.10
2022-07-31T10:25:02.692Z,66.70
2022-07-31T10:27:29.684Z,67.50
2022-07-31T10:29:56.668Z,67.80
2022-07-31T10:32:23.267Z,67.80
2022-07-31T10:34:49.888Z,68.50
2022-07-31T10:37:24.980Z,69.30
2022-07-31T10:40:06.032Z,70.00
2022-07-31T10:42:46.870Z,69.20
2022-07-31T10:45:14.126Z,70.20
2022-07-31T10:47:40.789Z,69.50
2022-07-31T10:50:25.661Z,69.60
2022-07-31T10:52:55.034Z,68.20
2022-07-31T10:55:27.352Z,68.40
2022-07-31T10:57:56.161Z,68.10
2022-07-31T11:00:28.262Z,68.80
2022-07-31T11:02:56.125Z,68.80
2022-07-31T11:05:27.828Z,68.90
2022-07-31T11:08:01.774Z,67.10
2022-07-31T11:10:28.414Z,65.30
2022-07-31T11:13:05.151Z,64.40
2022-07-31T11:15:31.881Z,65.50
2022-07-31T11:18:21.302Z,63.80
2022-07-31T11:20:48.212Z,64.20
2022-07-31T11:23:16.613Z,63.60
2022-07-31T11:25:45.536Z,64.80
2022-07-31T11:28:18.699Z,64.30
2022-07-31T11:30:53.416Z,63.70
2022-07-31T11:33:44.972Z,61.80
2022-07-31T11:36:29.839Z,60.70
2022-07-31T11:38:56.629Z,60.00
2022-07-31T11:41:27.885Z,60.90
2022-07-31T11:43:57.518Z,60.40
2022-07-31T11:46:28.753Z,61.10
2022-07-31T11:48:55.817Z,60.80
2022-07-31T11:51:22.774Z,61.60
2022-07-31T11:53:51.133Z,61.40
2022-07-31T11:56:24.184Z,60.70
2022-07-31T11:58:52.151Z,61.60
2022-07-31T12:01:18.892Z,61.10
2022-07-31T12:03:46.254Z,59.40
2022-07-31T12:06:13.296Z,58.60
2022-07-31T12:08:41.390Z,60.10
2022-07-31T12:11:09.322Z,59.50
2022-07-31T12:13:37.455Z,60.60
2022-07-31T12:16:09.636Z,60.30
2022-07-31T12:18:46.799Z,57.40
2022-07-31T12:21:13.421Z,55.90
2022-07-31T12:23:44.165Z,54.90
2022-07-31T12:26:12.237Z,56.10
2022-07-31T12:28:39.057Z,55.40
2022-07-31T12:31:05.758Z,56.50
2022-07-31T12:33:42.518Z,57.70
2022-07-31T12:36:16.297Z,58.30
2022-07-31T12:38:47.918Z,58.00
2022-07-31T12:41:15.174Z,57.20
2022-07-31T12:43:51.023Z,55.70
2022-07-31T12:46:22.295Z,55.80
2022-07-31T12:48:49.050Z,55.90
2022-07-31T12:51:17.658Z,56.80
2022-07-31T12:53:44.251Z,56.40
2022-07-31T12:56:11.797Z,58.20
2022-07-31T12:58:38.409Z,58.30
2022-07-31T13:01:04.998Z,58.10
2022-07-31T13:03:45.677Z,57.10
2022-07-31T13:06:13.547Z,57.40
2022-07-31T13:08:40.215Z,58.10
2022-07-31T13:11:06.817Z,58.70
2022-07-31T13:13:33.455Z,59.30
2022-07-31T13:16:00.107Z,58.70
2022-07-31T13:18:26.768Z,58.40
2022-07-31T13:20:53.468Z,58.80
2022-07-31T13:23:21.364Z,59.00
2022-07-31T13:25:47.991Z,59.10
2022-07-31T13:28:14.614Z,59.90
2022-07-31T13:30:41.518Z,61.20
2022-07-31T13:33:08.134Z,60.70
2022-07-31T13:35:34.792Z,61.10
2022-07-31T13:38:01.511Z,61.00
2022-07-31T13:40:46.506Z,61.40
2022-07-31T13:43:13.216Z,62.20
2022-07-31T13:45:39.880Z,61.40
2022-07-31T13:48:09.414Z,61.60
2022-07-31T13:50:37.594Z,62.40
2022-07-31T13:53:04.639Z,63.40
2022-07-31T13:55:31.373Z,62.60
2022-07-31T13:57:59.554Z,63.00
2022-07-31T14:00:28.300Z,61.80
2022-07-31T14:02:54.901Z,60.70
2022-07-31T14:05:21.566Z,61.20
2022-07-31T14:07:51.720Z,61.90
2022-07-31T14:10:20.812Z,61.40
2022-07-31T14:12:48.195Z,61.90
2022-07-31T14:15:15.098Z,62.70
2022-07-31T14:17:41.709Z,62.60
2022-07-31T14:20:08.945Z,63.20
2022-07-31T14:22:35.532Z,62.90
2022-07-31T14:25:02.143Z,63.10
2022-07-31T14:27:28.814Z,63.10
2022-07-31T14:29:55.497Z,62.80
2022-07-31T14:32:22.407Z,63.30
2022-07-31T14:34:49.912Z,62.10
2022-07-31T14:37:16.601Z,61.90
2022-07-31T14:39:43.423Z,61.50
2022-07-31T14:42:10.537Z,58.30
2022-07-31T14:44:38.181Z,57.20
2022-07-31T14:47:05.130Z,57.20
2022-07-31T14:50:06.453Z,57.20
2022-07-31T14:52:18.791Z,57.90
2022-07-31T14:54:45.395Z,59.00
2022-07-31T14:57:12.156Z,57.30
2022-07-31T14:59:38.892Z,58.50
2022-07-31T15:02:05.913Z,57.60
2022-07-31T15:04:32.620Z,56.80
2022-07-31T15:07:19.211Z,55.60
2022-07-31T15:09:46.702Z,54.70
2022-07-31T15:12:16.695Z,55.00
2022-07-31T15:14:43.981Z,54.60
2022-07-31T15:17:10.609Z,55.10
2022-07-31T15:19:37.246Z,55.80
2022-07-31T15:22:10.446Z,56.30
2022-07-31T15:24:49.229Z,57.50
2022-07-31T15:27:21.492Z,56.20
2022-07-31T15:30:04.405Z,56.10
2022-07-31T15:32:38.007Z,56.10
2022-07-31T15:35:06.045Z,55.00
2022-07-31T15:37:36.777Z,58.40
2022-07-31T15:40:05.426Z,57.90
2022-07-31T15:42:32.450Z,58.40
2022-07-31T15:44:59.116Z,57.90
2022-07-31T15:47:25.756Z,56.90
2022-07-31T15:49:52.379Z,57.90
2022-07-31T15:52:19.680Z,59.40
2022-07-31T15:54:46.834Z,59.80
2022-07-31T15:57:13.732Z,60.00
2022-07-31T15:59:41.582Z,60.90
2022-07-31T16:02:08.220Z,60.60
2022-07-31T16:04:36.610Z,61.60
2022-07-31T16:08:29.415Z,60.70
2022-07-31T16:10:03.874Z,58.60
2022-07-31T16:12:43.022Z,57.10
2022-07-31T16:15:11.378Z,58.00
2022-07-31T16:17:38.089Z,58.80
2022-07-31T16:20:09.689Z,60.10
2022-07-31T16:22:37.054Z,61.70
2022-07-31T16:25:04.236Z,62.70
2022-07-31T16:27:30.878Z,63.30
2022-07-31T16:29:59.896Z,64.00
2022-07-31T16:32:28.832Z,64.10
2022-07-31T16:35:00.240Z,63.90
2022-07-31T16:37:51.876Z,64.40
2022-07-31T16:40:28.030Z,64.40
2022-07-31T16:43:01.424Z,64.60
2022-07-31T16:45:29.105Z,65.20
2022-07-31T16:47:55.739Z,65.20
2022-07-31T16:50:22.542Z,65.20
2022-07-31T16:52:52.706Z,65.40
2022-07-31T16:55:46.106Z,64.90
2022-07-31T16:58:11.002Z,64.80
2022-07-31T17:00:38.889Z,64.70
2022-07-31T17:03:05.662Z,64.40
2022-07-31T17:05:32.384Z,65.00
2022-07-31T17:07:59.173Z,64.80
2022-07-31T17:10:26.184Z,65.10
2022-07-31T17:12:53.880Z,65.10
2022-07-31T17:15:20.672Z,65.00
2022-07-31T17:17:47.302Z,65.90
2022-07-31T17:20:13.975Z,66.50
2022-07-31T17:22:41.692Z,66.90
2022-07-31T17:25:10.163Z,67.60
2022-07-31T17:27:36.789Z,67.80
2022-07-31T17:30:04.110Z,68.30
2022-07-31T17:32:32.316Z,68.60
2022-07-31T17:38:18.703Z,69.10
2022-07-31T17:40:46.797Z,69.70
2022-07-31T17:43:14.063Z,69.70
2022-07-31T17:45:59.551Z,69.60
2022-07-31T17:48:28.006Z,69.80
2022-07-31T17:50:54.656Z,69.80
2022-07-31T17:53:21.290Z,69.80
2022-07-31T17:55:49.510Z,70.30
2022-07-31T17:58:16.152Z,70.10
2022-07-31T18:00:42.838Z,69.90
2022-07-31T18:03:09.463Z,70.00
2022-07-31T18:05:36.077Z,70.10
2022-07-31T18:08:02.717Z,70.10
2022-07-31T18:10:53.045Z,70.30
2022-07-31T18:13:16.070Z,70.60
2022-07-31T18:15:43.160Z,71.00
2022-07-31T18:18:09.766Z,71.20
2022-07-31T18:20:36.394Z,71.40
2022-07-31T18:23:03.106Z,71.40
2022-07-31T18:25:29.720Z,71.60
2022-07-31T18:27:57.156Z,72.10
2022-07-31T18:30:23.817Z,72.30
2022-07-31T18:32:57.126Z,72.30
2022-07-31T18:35:23.764Z,72.50
2022-07-31T18:37:50.378Z,72.60
2022-07-31T18:40:17.111Z,73.60
2022-07-31T18:42:43.730Z,73.10
2022-07-31T18:45:10.523Z,73.60
2022-07-31T18:47:37.499Z,74.00
2022-07-31T18:51:01.466Z,74.60
2022-07-31T18:52:51.946Z,74.90
2022-07-31T18:55:18.569Z,75.40
2022-07-31T18:57:45.197Z,76.30
2022-07-31T19:00:12.308Z,76.40
2022-07-31T19:02:38.957Z,77.40
2022-07-31T19:05:07.375Z,77.50
2022-07-31T19:07:40.398Z,78.10
2022-07-31T19:10:07.817Z,79.30
2022-07-31T19:12:35.318Z,79.40
2022-07-31T19:15:03.204Z,79.70
2022-07-31T19:17:43.988Z,80.40
2022-07-31T19:20:14.916Z,81.70
2022-07-31T19:22:58.947Z,81.80
2022-07-31T19:25:25.629Z,83.20
2022-07-31T19:27:52.242Z,83.40
2022-07-31T19:30:18.862Z,84.20
2022-07-31T19:32:45.501Z,84.60
2022-07-31T19:35:12.165Z,85.10
2022-07-31T19:37:38.832Z,85.90
2022-07-31T19:40:06.287Z,86.50
2022-07-31T19:42:32.936Z,87.00
2022-07-31T19:44:59.599Z,88.10
2022-07-31T19:47:26.267Z,88.30
2022-07-31T19:49:53.194Z,89.10
2022-07-31T19:52:19.843Z,90.40
2022-07-31T19:54:46.464Z,90.80
2022-07-31T19:57:13.081Z,91.10
2022-07-31T19:59:39.825Z,91.90
2022-07-31T20:02:06.933Z,92.60
2022-07-31T20:04:36.378Z,93.50
2022-07-31T20:07:03.046Z,94.60
2022-07-31T20:09:31.086Z,95.70
2022-07-31T20:11:57.795Z,97.10
2022-07-31T20:14:24.457Z,98.70
2022-07-31T20:16:51.071Z,99.90
2022-07-31T20:19:17.679Z,99.90
2022-07-31T20:21:44.298Z,99.90
2022-07-31T20:24:11.694Z,99.90
2022-07-31T20:26:38.357Z,99.90
2022-07-31T20:29:05.401Z,99.90
2022-07-31T20:31:33.013Z,99.90
2022-07-31T20:33:59.629Z,99.90
2022-07-31T20:36:27.261Z,99.90
2022-07-31T20:38:54.144Z,99.90
2022-07-31T20:41:20.889Z,99.90
2022-07-31T20:43:47.508Z,99.90
2022-07-31T20:46:15.686Z,99.90
2022-07-31T20:48:44.053Z,99.90
2022-07-31T20:51:15.915Z,99.90
2022-07-31T20:53:43.926Z,99.90
2022-07-31T20:56:10.813Z,99.90
2022-07-31T20:58:37.433Z,99.90
2022-07-31T21:01:04.245Z,99.90
2022-07-31T21:03:30.905Z,99.90
2022-07-31T21:05:57.558Z,99.90
2022-07-31T21:08:24.187Z,99.90
2022-07-31T21:10:51.074Z,99.90
2022-07-31T21:13:17.773Z,99.90
2022-07-31T21:15:45.325Z,99.90
2022-07-31T21:18:12.841Z,99.90
2022-07-31T21:20:50.123Z,99.90
2022-07-31T21:23:19.463Z,99.90
2022-07-31T21:25:46.360Z,99.90
2022-07-31T21:28:13.106Z,99.90
2022-07-31T21:30:40.040Z,99.90
2022-07-31T21:33:07.326Z,99.90
2022-07-31T21:35:37.195Z,99.90
2022-07-31T21:38:04.485Z,99.90
2022-07-31T21:40:33.828Z,99.90
2022-07-31T21:43:00.699Z,99.90
2022-07-31T21:45:38.428Z,99.90
2022-07-31T21:48:15.226Z,99.90
2022-07-31T21:50:42.630Z,99.90
2022-07-31T21:53:09.256Z,99.90
2022-07-31T21:55:36.839Z,99.90
2022-07-31T21:58:03.957Z,99.90
2022-07-31T22:00:30.602Z,99.90
2022-07-31T22:02:57.611Z,99.90
2022-07-31T22:05:42.803Z,99.90
2022-07-31T22:08:09.434Z,99.90
2022-07-31T22:10:36.047Z,99.90
2022-07-31T22:13:02.684Z,99.90
2022-07-31T22:15:50.378Z,99.90
2022-07-31T22:18:16.240Z,99.90
2022-07-31T22:20:43.176Z,99.90
2022-07-31T22:23:10.939Z,99.90
2022-07-31T22:25:38.530Z,99.90
2022-07-31T22:28:07.251Z,99.90
2022-07-31T22:30:34.047Z,99.90
2022-07-31T22:33:00.988Z,99.90
2022-07-31T22:35:27.978Z,99.90
2022-07-31T22:37:54.641Z,99.90
2022-07-31T22:40:22.122Z,99.90
2022-07-31T22:42:57.524Z,99.90
2022-07-31T22:45:25.064Z,99.90
2022-07-31T22:47:51.832Z,99.90
2022-07-31T22:50:18.545Z,99.90
2022-07-31T22:52:45.257Z,99.90
2022-07-31T22:55:12.010Z,99.90
2022-07-31T22:57:40.818Z,99.90
2022-07-31T23:00:08.977Z,99.90
2022-07-31T23:02:35.796Z,99.90
2022-07-31T23:05:02.524Z,99.90
2022-07-31T23:07:29.155Z,99.90
2022-07-31T23:09:55.836Z,99.90
2022-07-31T23:12:22.489Z,99.90
2022-07-31T23:14:54.995Z,99.90
2022-07-31T23:17:23.215Z,99.90
2022-07-31T23:19:53.830Z,99.90
2022-07-31T23:22:33.448Z,99.90
2022-07-31T23:25:10.298Z,99.90
2022-07-31T23:27:36.917Z,99.90
2022-07-31T23:30:03.738Z,99.90
2022-07-31T23:32:30.381Z,99.90
2022-07-31T23:34:57.762Z,99.90
2022-07-31T23:37:24.375Z,99.90
2022-07-31T23:39:52.062Z,99.90
2022-07-31T23:42:37.043Z,99.90
2022-07-31T23:45:05.463Z,99.90
2022-07-31T23:47:45.454Z,99.90
2022-07-31T23:50:13.627Z,99.90
2022-07-31T23:52:40.303Z,99.90
2022-07-31T23:55:07.157Z,99.90
2022-07-31T23:57:34.680Z,99.90
